sensor_id;sensor_type;location;lat;lon;timestamp;P1;durP1;ratioP1;P2;durP2;ratioP2
12367;SDS011;6248;49.812;6.620;2024-03-17T00:00:25;3.40;;;3.10;;
12367;SDS011;6248;49.812;6.620;2024-03-17T00:02:52;4.63;;;3.73;;
12367;SDS011;6248;49.812;6.620;2024-03-17T00:05:18;3.67;;;3.37;;
12367;SDS011;6248;49.812;6.620;2024-03-17T00:07:46;3.40;;;3.10;;
12367;SDS011;6248;49.812;6.620;2024-03-17T00:10:12;4.07;;;3.67;;
12367;SDS011;6248;49.812;6.620;2024-03-17T00:12:40;3.93;;;3.53;;
12367;SDS011;6248;49.812;6.620;2024-03-17T00:15:07;3.93;;;3.60;;
12367;SDS011;6248;49.812;6.620;2024-03-17T00:17:34;3.70;;;3.40;;
12367;SDS011;6248;49.812;6.620;2024-03-17T00:20:00;3.23;;;3.03;;
12367;SDS011;6248;49.812;6.620;2024-03-17T00:22:34;3.40;;;3.10;;
12367;SDS011;6248;49.812;6.620;2024-03-17T00:25:04;3.10;;;2.90;;
12367;SDS011;6248;49.812;6.620;2024-03-17T00:27:31;3.40;;;3.10;;
12367;SDS011;6248;49.812;6.620;2024-03-17T00:29:57;3.30;;;3.00;;
12367;SDS011;6248;49.812;6.620;2024-03-17T00:32:24;2.90;;;2.70;;
12367;SDS011;6248;49.812;6.620;2024-03-17T00:34:50;4.40;;;3.03;;
12367;SDS011;6248;49.812;6.620;2024-03-17T00:37:18;3.17;;;2.87;;
12367;SDS011;6248;49.812;6.620;2024-03-17T00:39:44;3.03;;;2.83;;
12367;SDS011;6248;49.812;6.620;2024-03-17T00:42:13;2.90;;;2.70;;
12367;SDS011;6248;49.812;6.620;2024-03-17T00:44:39;3.17;;;2.73;;
12367;SDS011;6248;49.812;6.620;2024-03-17T00:47:06;3.80;;;3.20;;
12367;SDS011;6248;49.812;6.620;2024-03-17T00:49:33;4.33;;;3.00;;
12367;SDS011;6248;49.812;6.620;2024-03-17T00:52:00;3.40;;;3.10;;
12367;SDS011;6248;49.812;6.620;2024-03-17T00:54:26;3.93;;;2.90;;
12367;SDS011;6248;49.812;6.620;2024-03-17T00:56:53;4.37;;;3.23;;
12367;SDS011;6248;49.812;6.620;2024-03-17T00:59:21;4.80;;;4.30;;
12367;SDS011;6248;49.812;6.620;2024-03-17T01:01:48;5.73;;;4.60;;
12367;SDS011;6248;49.812;6.620;2024-03-17T01:04:14;5.97;;;4.70;;
12367;SDS011;6248;49.812;6.620;2024-03-17T01:06:41;6.50;;;4.63;;
12367;SDS011;6248;49.812;6.620;2024-03-17T01:09:08;5.20;;;4.70;;
12367;SDS011;6248;49.812;6.620;2024-03-17T01:11:35;6.33;;;5.17;;
12367;SDS011;6248;49.812;6.620;2024-03-17T01:14:01;5.27;;;4.77;;
12367;SDS011;6248;49.812;6.620;2024-03-17T01:16:29;6.10;;;4.67;;
12367;SDS011;6248;49.812;6.620;2024-03-17T01:18:55;5.10;;;4.60;;
12367;SDS011;6248;49.812;6.620;2024-03-17T01:21:22;5.00;;;4.50;;
12367;SDS011;6248;49.812;6.620;2024-03-17T01:23:49;6.13;;;4.70;;
12367;SDS011;6248;49.812;6.620;2024-03-17T01:26:16;5.83;;;4.83;;
12367;SDS011;6248;49.812;6.620;2024-03-17T01:28:42;4.60;;;4.20;;
12367;SDS011;6248;49.812;6.620;2024-03-17T01:31:09;4.83;;;4.20;;
12367;SDS011;6248;49.812;6.620;2024-03-17T01:33:37;4.77;;;4.07;;
12367;SDS011;6248;49.812;6.620;2024-03-17T01:36:04;4.30;;;3.90;;
12367;SDS011;6248;49.812;6.620;2024-03-17T01:38:30;4.57;;;3.77;;
12367;SDS011;6248;49.812;6.620;2024-03-17T01:40:58;4.83;;;3.83;;
12367;SDS011;6248;49.812;6.620;2024-03-17T01:43:24;4.93;;;3.87;;
12367;SDS011;6248;49.812;6.620;2024-03-17T01:45:53;3.97;;;3.67;;
12367;SDS011;6248;49.812;6.620;2024-03-17T01:48:19;3.93;;;3.53;;
12367;SDS011;6248;49.812;6.620;2024-03-17T01:50:48;3.90;;;3.50;;
12367;SDS011;6248;49.812;6.620;2024-03-17T01:53:15;3.67;;;3.37;;
12367;SDS011;6248;49.812;6.620;2024-03-17T01:55:43;3.53;;;3.23;;
12367;SDS011;6248;49.812;6.620;2024-03-17T01:58:10;3.10;;;2.80;;
12367;SDS011;6248;49.812;6.620;2024-03-17T02:00:37;5.57;;;3.23;;
12367;SDS011;6248;49.812;6.620;2024-03-17T02:03:04;3.17;;;2.97;;
12367;SDS011;6248;49.812;6.620;2024-03-17T02:05:31;3.00;;;2.70;;
12367;SDS011;6248;49.812;6.620;2024-03-17T02:07:58;2.50;;;2.30;;
12367;SDS011;6248;49.812;6.620;2024-03-17T02:10:26;2.97;;;2.70;;
12367;SDS011;6248;49.812;6.620;2024-03-17T02:12:53;4.00;;;2.60;;
12367;SDS011;6248;49.812;6.620;2024-03-17T02:15:20;2.60;;;2.40;;
12367;SDS011;6248;49.812;6.620;2024-03-17T02:17:46;2.50;;;2.30;;
12367;SDS011;6248;49.812;6.620;2024-03-17T02:20:13;2.60;;;2.40;;
12367;SDS011;6248;49.812;6.620;2024-03-17T02:22:41;3.37;;;2.57;;
12367;SDS011;6248;49.812;6.620;2024-03-17T02:25:08;2.70;;;2.50;;
12367;SDS011;6248;49.812;6.620;2024-03-17T02:27:34;4.37;;;2.47;;
12367;SDS011;6248;49.812;6.620;2024-03-17T02:30:01;3.00;;;2.37;;
12367;SDS011;6248;49.812;6.620;2024-03-17T02:32:28;2.40;;;2.20;;
12367;SDS011;6248;49.812;6.620;2024-03-17T02:34:55;2.30;;;2.20;;
12367;SDS011;6248;49.812;6.620;2024-03-17T02:37:22;1.97;;;1.87;;
12367;SDS011;6248;49.812;6.620;2024-03-17T02:39:50;3.00;;;2.13;;
12367;SDS011;6248;49.812;6.620;2024-03-17T02:42:16;2.50;;;2.17;;
12367;SDS011;6248;49.812;6.620;2024-03-17T02:44:43;3.73;;;2.80;;
12367;SDS011;6248;49.812;6.620;2024-03-17T02:47:11;2.30;;;2.10;;
12367;SDS011;6248;49.812;6.620;2024-03-17T02:49:39;2.50;;;2.30;;
12367;SDS011;6248;49.812;6.620;2024-03-17T02:52:09;2.73;;;2.53;;
12367;SDS011;6248;49.812;6.620;2024-03-17T02:54:37;2.60;;;2.40;;
12367;SDS011;6248;49.812;6.620;2024-03-17T02:57:06;3.10;;;2.80;;
12367;SDS011;6248;49.812;6.620;2024-03-17T02:59:33;2.90;;;2.60;;
12367;SDS011;6248;49.812;6.620;2024-03-17T03:02:00;3.00;;;2.70;;
12367;SDS011;6248;49.812;6.620;2024-03-17T03:04:27;2.63;;;2.23;;
12367;SDS011;6248;49.812;6.620;2024-03-17T03:06:54;2.87;;;2.60;;
12367;SDS011;6248;49.812;6.620;2024-03-17T03:09:22;2.80;;;2.50;;
12367;SDS011;6248;49.812;6.620;2024-03-17T03:11:56;3.10;;;2.63;;
12367;SDS011;6248;49.812;6.620;2024-03-17T03:14:24;2.63;;;2.43;;
12367;SDS011;6248;49.812;6.620;2024-03-17T03:16:52;2.20;;;2.10;;
12367;SDS011;6248;49.812;6.620;2024-03-17T03:19:19;3.03;;;2.60;;
12367;SDS011;6248;49.812;6.620;2024-03-17T03:21:46;2.63;;;2.43;;
12367;SDS011;6248;49.812;6.620;2024-03-17T03:24:13;2.50;;;2.30;;
12367;SDS011;6248;49.812;6.620;2024-03-17T03:26:41;2.80;;;2.60;;
12367;SDS011;6248;49.812;6.620;2024-03-17T03:29:08;2.60;;;2.40;;
12367;SDS011;6248;49.812;6.620;2024-03-17T03:31:37;2.47;;;2.27;;
12367;SDS011;6248;49.812;6.620;2024-03-17T03:34:05;2.47;;;2.27;;
12367;SDS011;6248;49.812;6.620;2024-03-17T03:36:33;2.43;;;2.23;;
12367;SDS011;6248;49.812;6.620;2024-03-17T03:39:00;3.27;;;2.20;;
12367;SDS011;6248;49.812;6.620;2024-03-17T03:41:29;2.60;;;2.40;;
12367;SDS011;6248;49.812;6.620;2024-03-17T03:43:56;3.23;;;2.40;;
12367;SDS011;6248;49.812;6.620;2024-03-17T03:46:23;2.60;;;2.40;;
12367;SDS011;6248;49.812;6.620;2024-03-17T03:48:52;3.10;;;2.67;;
12367;SDS011;6248;49.812;6.620;2024-03-17T03:51:19;3.73;;;2.50;;
12367;SDS011;6248;49.812;6.620;2024-03-17T03:53:46;2.90;;;2.60;;
12367;SDS011;6248;49.812;6.620;2024-03-17T03:56:14;2.90;;;2.70;;
12367;SDS011;6248;49.812;6.620;2024-03-17T03:58:42;2.70;;;2.50;;
12367;SDS011;6248;49.812;6.620;2024-03-17T04:01:11;2.33;;;2.13;;
12367;SDS011;6248;49.812;6.620;2024-03-17T04:03:40;2.47;;;2.30;;
12367;SDS011;6248;49.812;6.620;2024-03-17T04:06:10;3.13;;;2.70;;
12367;SDS011;6248;49.812;6.620;2024-03-17T04:08:38;2.57;;;2.03;;
12367;SDS011;6248;49.812;6.620;2024-03-17T04:11:06;3.30;;;2.13;;
12367;SDS011;6248;49.812;6.620;2024-03-17T04:13:33;2.30;;;2.20;;
12367;SDS011;6248;49.812;6.620;2024-03-17T04:16:03;2.90;;;2.37;;
12367;SDS011;6248;49.812;6.620;2024-03-17T04:18:30;2.53;;;2.10;;
12367;SDS011;6248;49.812;6.620;2024-03-17T04:21:00;3.03;;;2.50;;
12367;SDS011;6248;49.812;6.620;2024-03-17T04:23:29;2.60;;;2.40;;
12367;SDS011;6248;49.812;6.620;2024-03-17T04:25:57;2.40;;;2.20;;
12367;SDS011;6248;49.812;6.620;2024-03-17T04:28:24;2.47;;;2.30;;
12367;SDS011;6248;49.812;6.620;2024-03-17T04:30:51;3.40;;;2.10;;
12367;SDS011;6248;49.812;6.620;2024-03-17T04:33:19;2.60;;;2.40;;
12367;SDS011;6248;49.812;6.620;2024-03-17T04:35:46;3.00;;;2.80;;
12367;SDS011;6248;49.812;6.620;2024-03-17T04:38:13;2.30;;;2.20;;
12367;SDS011;6248;49.812;6.620;2024-03-17T04:40:42;2.73;;;2.50;;
12367;SDS011;6248;49.812;6.620;2024-03-17T04:43:10;2.40;;;2.20;;
12367;SDS011;6248;49.812;6.620;2024-03-17T04:45:37;2.90;;;2.40;;
12367;SDS011;6248;49.812;6.620;2024-03-17T04:48:05;2.77;;;2.37;;
12367;SDS011;6248;49.812;6.620;2024-03-17T04:50:32;2.60;;;2.40;;
12367;SDS011;6248;49.812;6.620;2024-03-17T04:52:59;2.60;;;2.40;;
12367;SDS011;6248;49.812;6.620;2024-03-17T04:55:26;3.00;;;2.70;;
12367;SDS011;6248;49.812;6.620;2024-03-17T04:57:55;2.40;;;2.20;;
12367;SDS011;6248;49.812;6.620;2024-03-17T05:00:22;3.30;;;2.70;;
12367;SDS011;6248;49.812;6.620;2024-03-17T05:02:49;3.30;;;2.30;;
12367;SDS011;6248;49.812;6.620;2024-03-17T05:05:16;2.40;;;2.20;;
12367;SDS011;6248;49.812;6.620;2024-03-17T05:07:43;2.83;;;2.57;;
12367;SDS011;6248;49.812;6.620;2024-03-17T05:10:10;3.33;;;2.20;;
12367;SDS011;6248;49.812;6.620;2024-03-17T05:12:37;2.57;;;2.37;;
12367;SDS011;6248;49.812;6.620;2024-03-17T05:15:06;2.70;;;2.50;;
12367;SDS011;6248;49.812;6.620;2024-03-17T05:17:34;2.77;;;2.53;;
12367;SDS011;6248;49.812;6.620;2024-03-17T05:20:01;4.67;;;2.70;;
12367;SDS011;6248;49.812;6.620;2024-03-17T05:22:28;2.97;;;2.77;;
12367;SDS011;6248;49.812;6.620;2024-03-17T05:24:55;2.60;;;2.40;;
12367;SDS011;6248;49.812;6.620;2024-03-17T05:27:22;2.83;;;2.53;;
12367;SDS011;6248;49.812;6.620;2024-03-17T05:29:50;2.97;;;2.70;;
12367;SDS011;6248;49.812;6.620;2024-03-17T05:32:18;2.60;;;2.40;;
12367;SDS011;6248;49.812;6.620;2024-03-17T05:34:45;3.47;;;2.50;;
12367;SDS011;6248;49.812;6.620;2024-03-17T05:37:12;2.47;;;2.27;;
12367;SDS011;6248;49.812;6.620;2024-03-17T05:39:40;2.60;;;2.40;;
12367;SDS011;6248;49.812;6.620;2024-03-17T05:42:07;3.47;;;2.63;;
12367;SDS011;6248;49.812;6.620;2024-03-17T05:44:34;2.43;;;2.27;;
12367;SDS011;6248;49.812;6.620;2024-03-17T05:47:15;2.53;;;2.33;;
12367;SDS011;6248;49.812;6.620;2024-03-17T05:49:43;2.50;;;2.30;;
12367;SDS011;6248;49.812;6.620;2024-03-17T05:52:10;4.03;;;2.80;;
12367;SDS011;6248;49.812;6.620;2024-03-17T05:54:37;3.23;;;2.30;;
12367;SDS011;6248;49.812;6.620;2024-03-17T05:57:05;2.63;;;2.43;;
12367;SDS011;6248;49.812;6.620;2024-03-17T05:59:34;2.63;;;2.43;;
12367;SDS011;6248;49.812;6.620;2024-03-17T06:02:01;3.20;;;2.90;;
12367;SDS011;6248;49.812;6.620;2024-03-17T06:04:28;4.37;;;2.90;;
12367;SDS011;6248;49.812;6.620;2024-03-17T06:06:57;2.63;;;2.43;;
12367;SDS011;6248;49.812;6.620;2024-03-17T06:09:25;3.17;;;2.60;;
12367;SDS011;6248;49.812;6.620;2024-03-17T06:11:52;3.20;;;2.90;;
12367;SDS011;6248;49.812;6.620;2024-03-17T06:14:19;2.40;;;2.20;;
12367;SDS011;6248;49.812;6.620;2024-03-17T06:16:46;2.87;;;2.67;;
12367;SDS011;6248;49.812;6.620;2024-03-17T06:19:13;3.17;;;2.63;;
12367;SDS011;6248;49.812;6.620;2024-03-17T06:21:40;3.17;;;2.87;;
12367;SDS011;6248;49.812;6.620;2024-03-17T06:24:09;3.83;;;2.67;;
12367;SDS011;6248;49.812;6.620;2024-03-17T06:26:36;2.50;;;2.30;;
12367;SDS011;6248;49.812;6.620;2024-03-17T06:29:03;2.77;;;2.57;;
12367;SDS011;6248;49.812;6.620;2024-03-17T06:31:30;3.57;;;2.93;;
12367;SDS011;6248;49.812;6.620;2024-03-17T06:33:57;3.07;;;2.80;;
12367;SDS011;6248;49.812;6.620;2024-03-17T06:36:24;3.20;;;2.47;;
12367;SDS011;6248;49.812;6.620;2024-03-17T06:38:51;3.03;;;2.67;;
12367;SDS011;6248;49.812;6.620;2024-03-17T06:41:20;2.70;;;2.50;;
12367;SDS011;6248;49.812;6.620;2024-03-17T06:43:47;3.07;;;2.77;;
12367;SDS011;6248;49.812;6.620;2024-03-17T06:46:14;2.73;;;2.53;;
12367;SDS011;6248;49.812;6.620;2024-03-17T06:48:42;4.20;;;2.73;;
12367;SDS011;6248;49.812;6.620;2024-03-17T06:51:11;3.73;;;2.60;;
12367;SDS011;6248;49.812;6.620;2024-03-17T06:53:38;2.57;;;2.37;;
12367;SDS011;6248;49.812;6.620;2024-03-17T06:56:05;3.53;;;2.40;;
12367;SDS011;6248;49.812;6.620;2024-03-17T06:58:34;2.97;;;2.77;;
12367;SDS011;6248;49.812;6.620;2024-03-17T07:01:01;2.83;;;2.50;;
12367;SDS011;6248;49.812;6.620;2024-03-17T07:03:29;3.73;;;2.90;;
12367;SDS011;6248;49.812;6.620;2024-03-17T07:05:58;2.97;;;2.67;;
12367;SDS011;6248;49.812;6.620;2024-03-17T07:08:27;3.00;;;2.80;;
12367;SDS011;6248;49.812;6.620;2024-03-17T07:10:57;2.70;;;2.50;;
12367;SDS011;6248;49.812;6.620;2024-03-17T07:13:25;3.93;;;3.00;;
12367;SDS011;6248;49.812;6.620;2024-03-17T07:15:56;3.17;;;2.70;;
12367;SDS011;6248;49.812;6.620;2024-03-17T07:18:24;2.90;;;2.60;;
12367;SDS011;6248;49.812;6.620;2024-03-17T07:20:52;4.93;;;4.50;;
12367;SDS011;6248;49.812;6.620;2024-03-17T07:23:19;5.67;;;5.07;;
12367;SDS011;6248;49.812;6.620;2024-03-17T07:25:52;4.90;;;4.50;;
12367;SDS011;6248;49.812;6.620;2024-03-17T07:28:20;5.70;;;4.87;;
12367;SDS011;6248;49.812;6.620;2024-03-17T07:30:47;4.90;;;4.43;;
12367;SDS011;6248;49.812;6.620;2024-03-17T07:33:16;6.70;;;3.80;;
12367;SDS011;6248;49.812;6.620;2024-03-17T07:35:48;4.47;;;4.07;;
12367;SDS011;6248;49.812;6.620;2024-03-17T07:38:15;4.40;;;4.00;;
12367;SDS011;6248;49.812;6.620;2024-03-17T07:40:43;4.67;;;4.17;;
12367;SDS011;6248;49.812;6.620;2024-03-17T07:43:10;3.87;;;3.43;;
12367;SDS011;6248;49.812;6.620;2024-03-17T07:45:38;4.07;;;3.60;;
12367;SDS011;6248;49.812;6.620;2024-03-17T07:48:06;4.40;;;4.00;;
12367;SDS011;6248;49.812;6.620;2024-03-17T07:50:35;4.00;;;3.70;;
12367;SDS011;6248;49.812;6.620;2024-03-17T07:53:02;5.63;;;3.20;;
12367;SDS011;6248;49.812;6.620;2024-03-17T07:55:29;3.40;;;3.10;;
12367;SDS011;6248;49.812;6.620;2024-03-17T07:57:56;5.33;;;3.20;;
12367;SDS011;6248;49.812;6.620;2024-03-17T08:00:23;2.97;;;2.63;;
12367;SDS011;6248;49.812;6.620;2024-03-17T08:02:51;3.80;;;3.10;;
12367;SDS011;6248;49.812;6.620;2024-03-17T08:05:18;4.13;;;3.13;;
12367;SDS011;6248;49.812;6.620;2024-03-17T08:07:47;4.03;;;3.50;;
12367;SDS011;6248;49.812;6.620;2024-03-17T08:10:14;5.27;;;3.63;;
12367;SDS011;6248;49.812;6.620;2024-03-17T08:12:42;4.17;;;3.77;;
12367;SDS011;6248;49.812;6.620;2024-03-17T08:15:10;4.47;;;3.63;;
12367;SDS011;6248;49.812;6.620;2024-03-17T08:17:37;4.43;;;3.63;;
12367;SDS011;6248;49.812;6.620;2024-03-17T08:20:05;5.90;;;3.67;;
12367;SDS011;6248;49.812;6.620;2024-03-17T08:22:32;4.90;;;4.50;;
12367;SDS011;6248;49.812;6.620;2024-03-17T08:25:01;7.00;;;4.00;;
12367;SDS011;6248;49.812;6.620;2024-03-17T08:27:29;5.23;;;3.50;;
12367;SDS011;6248;49.812;6.620;2024-03-17T08:29:57;4.67;;;3.60;;
12367;SDS011;6248;49.812;6.620;2024-03-17T08:32:24;5.27;;;3.80;;
12367;SDS011;6248;49.812;6.620;2024-03-17T08:34:51;4.73;;;3.90;;
12367;SDS011;6248;49.812;6.620;2024-03-17T08:37:18;4.13;;;3.80;;
12367;SDS011;6248;49.812;6.620;2024-03-17T08:39:46;4.13;;;3.77;;
12367;SDS011;6248;49.812;6.620;2024-03-17T08:42:15;4.00;;;3.70;;
12367;SDS011;6248;49.812;6.620;2024-03-17T08:44:45;4.37;;;3.97;;
12367;SDS011;6248;49.812;6.620;2024-03-17T08:47:12;5.47;;;4.33;;
12367;SDS011;6248;49.812;6.620;2024-03-17T08:49:39;5.03;;;3.63;;
12367;SDS011;6248;49.812;6.620;2024-03-17T08:52:06;4.70;;;4.10;;
12367;SDS011;6248;49.812;6.620;2024-03-17T08:54:33;4.67;;;4.27;;
12367;SDS011;6248;49.812;6.620;2024-03-17T08:57:00;5.30;;;4.80;;
12367;SDS011;6248;49.812;6.620;2024-03-17T08:59:29;6.77;;;6.03;;
12367;SDS011;6248;49.812;6.620;2024-03-17T09:01:57;5.20;;;4.70;;
12367;SDS011;6248;49.812;6.620;2024-03-17T09:04:24;6.33;;;4.73;;
12367;SDS011;6248;49.812;6.620;2024-03-17T09:06:51;6.13;;;5.00;;
12367;SDS011;6248;49.812;6.620;2024-03-17T09:09:20;6.53;;;5.00;;
12367;SDS011;6248;49.812;6.620;2024-03-17T09:11:48;6.83;;;5.07;;
12367;SDS011;6248;49.812;6.620;2024-03-17T09:14:16;5.80;;;5.20;;
12367;SDS011;6248;49.812;6.620;2024-03-17T09:16:44;5.83;;;5.20;;
12367;SDS011;6248;49.812;6.620;2024-03-17T09:19:10;6.10;;;5.60;;
12367;SDS011;6248;49.812;6.620;2024-03-17T09:21:38;6.63;;;5.70;;
12367;SDS011;6248;49.812;6.620;2024-03-17T09:24:05;7.13;;;5.57;;
12367;SDS011;6248;49.812;6.620;2024-03-17T09:26:33;6.10;;;5.60;;
12367;SDS011;6248;49.812;6.620;2024-03-17T09:29:00;8.80;;;6.40;;
12367;SDS011;6248;49.812;6.620;2024-03-17T09:31:28;7.33;;;6.27;;
12367;SDS011;6248;49.812;6.620;2024-03-17T09:33:57;11.10;;;7.47;;
12367;SDS011;6248;49.812;6.620;2024-03-17T09:36:24;10.43;;;7.80;;
12367;SDS011;6248;49.812;6.620;2024-03-17T09:38:51;9.77;;;8.07;;
12367;SDS011;6248;49.812;6.620;2024-03-17T09:41:19;10.00;;;7.87;;
12367;SDS011;6248;49.812;6.620;2024-03-17T09:43:47;10.17;;;8.00;;
12367;SDS011;6248;49.812;6.620;2024-03-17T09:46:15;11.90;;;8.43;;
12367;SDS011;6248;49.812;6.620;2024-03-17T09:48:42;10.70;;;8.07;;
12367;SDS011;6248;49.812;6.620;2024-03-17T09:51:14;8.87;;;7.03;;
12367;SDS011;6248;49.812;6.620;2024-03-17T09:53:42;8.20;;;6.37;;
12367;SDS011;6248;49.812;6.620;2024-03-17T09:56:10;6.93;;;5.93;;
12367;SDS011;6248;49.812;6.620;2024-03-17T09:58:38;7.63;;;6.37;;
12367;SDS011;6248;49.812;6.620;2024-03-17T10:01:05;6.23;;;5.30;;
12367;SDS011;6248;49.812;6.620;2024-03-17T10:03:39;6.27;;;5.10;;
12367;SDS011;6248;49.812;6.620;2024-03-17T10:06:07;6.30;;;5.43;;
12367;SDS011;6248;49.812;6.620;2024-03-17T10:08:41;9.93;;;7.60;;
12367;SDS011;6248;49.812;6.620;2024-03-17T10:11:08;10.13;;;7.50;;
12367;SDS011;6248;49.812;6.620;2024-03-17T10:13:36;10.23;;;7.30;;
12367;SDS011;6248;49.812;6.620;2024-03-17T10:16:03;8.10;;;6.40;;
12367;SDS011;6248;49.812;6.620;2024-03-17T10:18:30;8.63;;;6.90;;
12367;SDS011;6248;49.812;6.620;2024-03-17T10:20:58;11.27;;;7.53;;
12367;SDS011;6248;49.812;6.620;2024-03-17T10:23:26;8.37;;;6.80;;
12367;SDS011;6248;49.812;6.620;2024-03-17T10:25:55;8.70;;;6.23;;
12367;SDS011;6248;49.812;6.620;2024-03-17T10:28:22;10.43;;;7.57;;
12367;SDS011;6248;49.812;6.620;2024-03-17T10:33:35;10.10;;;7.30;;
12367;SDS011;6248;49.812;6.620;2024-03-17T10:36:02;8.93;;;7.00;;
12367;SDS011;6248;49.812;6.620;2024-03-17T10:38:30;8.97;;;6.87;;
12367;SDS011;6248;49.812;6.620;2024-03-17T10:41:01;10.60;;;7.30;;
12367;SDS011;6248;49.812;6.620;2024-03-17T10:43:28;10.03;;;7.00;;
12367;SDS011;6248;49.812;6.620;2024-03-17T10:45:56;8.87;;;6.73;;
12367;SDS011;6248;49.812;6.620;2024-03-17T10:48:25;9.77;;;7.07;;
12367;SDS011;6248;49.812;6.620;2024-03-17T10:50:53;8.87;;;6.47;;
12367;SDS011;6248;49.812;6.620;2024-03-17T10:53:23;9.43;;;6.57;;
12367;SDS011;6248;49.812;6.620;2024-03-17T10:55:55;9.70;;;6.90;;
12367;SDS011;6248;49.812;6.620;2024-03-17T10:58:32;9.27;;;6.38;;
12367;SDS011;6248;49.812;6.620;2024-03-17T11:01:01;9.20;;;6.32;;
12367;SDS011;6248;49.812;6.620;2024-03-17T11:03:29;8.30;;;6.40;;
12367;SDS011;6248;49.812;6.620;2024-03-17T11:05:57;7.47;;;5.95;;
12367;SDS011;6248;49.812;6.620;2024-03-17T11:08:25;9.07;;;6.60;;
12367;SDS011;6248;49.812;6.620;2024-03-17T11:10:53;8.07;;;6.20;;
12367;SDS011;6248;49.812;6.620;2024-03-17T11:13:23;7.47;;;5.63;;
12367;SDS011;6248;49.812;6.620;2024-03-17T11:15:52;8.13;;;6.13;;
12367;SDS011;6248;49.812;6.620;2024-03-17T11:21:18;7.13;;;5.80;;
12367;SDS011;6248;49.812;6.620;2024-03-17T11:26:33;8.55;;;5.80;;
12367;SDS011;6248;49.812;6.620;2024-03-17T11:29:01;8.67;;;6.27;;
12367;SDS011;6248;49.812;6.620;2024-03-17T11:31:33;7.80;;;5.95;;
12367;SDS011;6248;49.812;6.620;2024-03-17T11:34:00;8.20;;;6.32;;
12367;SDS011;6248;49.812;6.620;2024-03-17T11:36:36;7.97;;;6.03;;
12367;SDS011;6248;49.812;6.620;2024-03-17T11:39:03;8.33;;;6.33;;
12367;SDS011;6248;49.812;6.620;2024-03-17T11:41:36;10.63;;;6.43;;
12367;SDS011;6248;49.812;6.620;2024-03-17T11:44:25;6.95;;;5.55;;
12367;SDS011;6248;49.812;6.620;2024-03-17T11:46:55;9.50;;;5.67;;
12367;SDS011;6248;49.812;6.620;2024-03-17T11:49:23;7.50;;;5.32;;
12367;SDS011;6248;49.812;6.620;2024-03-17T11:51:51;6.60;;;5.13;;
12367;SDS011;6248;49.812;6.620;2024-03-17T11:54:18;9.75;;;5.82;;
12367;SDS011;6248;49.812;6.620;2024-03-17T11:56:47;7.25;;;5.40;;
12367;SDS011;6248;49.812;6.620;2024-03-17T11:59:14;6.95;;;5.93;;
12367;SDS011;6248;49.812;6.620;2024-03-17T12:01:42;7.68;;;6.03;;
12367;SDS011;6248;49.812;6.620;2024-03-17T12:04:11;10.05;;;6.30;;
12367;SDS011;6248;49.812;6.620;2024-03-17T12:06:39;13.27;;;7.63;;
12367;SDS011;6248;49.812;6.620;2024-03-17T12:09:08;10.10;;;7.57;;
12367;SDS011;6248;49.812;6.620;2024-03-17T12:11:36;15.60;;;10.80;;
12367;SDS011;6248;49.812;6.620;2024-03-17T12:14:09;9.50;;;6.15;;
12367;SDS011;6248;49.812;6.620;2024-03-17T12:16:46;16.30;;;11.73;;
12367;SDS011;6248;49.812;6.620;2024-03-17T12:19:14;11.13;;;7.10;;
12367;SDS011;6248;49.812;6.620;2024-03-17T12:21:43;12.07;;;9.10;;
12367;SDS011;6248;49.812;6.620;2024-03-17T12:24:11;12.00;;;8.73;;
12367;SDS011;6248;49.812;6.620;2024-03-17T12:26:40;10.98;;;7.20;;
12367;SDS011;6248;49.812;6.620;2024-03-17T12:29:20;9.55;;;5.90;;
12367;SDS011;6248;49.812;6.620;2024-03-17T12:31:49;7.97;;;5.25;;
12367;SDS011;6248;49.812;6.620;2024-03-17T12:34:17;7.88;;;4.97;;
12367;SDS011;6248;49.812;6.620;2024-03-17T12:36:44;6.88;;;5.47;;
12367;SDS011;6248;49.812;6.620;2024-03-17T12:39:11;5.03;;;4.53;;
12367;SDS011;6248;49.812;6.620;2024-03-17T12:41:39;5.10;;;4.47;;
12367;SDS011;6248;49.812;6.620;2024-03-17T12:44:07;6.20;;;4.63;;
12367;SDS011;6248;49.812;6.620;2024-03-17T12:46:45;4.53;;;4.10;;
12367;SDS011;6248;49.812;6.620;2024-03-17T12:49:12;5.53;;;4.72;;
12367;SDS011;6248;49.812;6.620;2024-03-17T12:51:40;5.18;;;4.32;;
12367;SDS011;6248;49.812;6.620;2024-03-17T12:54:13;5.20;;;4.13;;
12367;SDS011;6248;49.812;6.620;2024-03-17T12:56:39;6.18;;;4.53;;
12367;SDS011;6248;49.812;6.620;2024-03-17T12:59:24;5.45;;;4.10;;
12367;SDS011;6248;49.812;6.620;2024-03-17T13:02:10;5.10;;;4.13;;
12367;SDS011;6248;49.812;6.620;2024-03-17T13:04:37;5.97;;;4.60;;
12367;SDS011;6248;49.812;6.620;2024-03-17T13:07:14;7.05;;;4.50;;
12367;SDS011;6248;49.812;6.620;2024-03-17T13:09:42;7.22;;;4.43;;
12367;SDS011;6248;49.812;6.620;2024-03-17T13:12:13;7.70;;;5.10;;
12367;SDS011;6248;49.812;6.620;2024-03-17T13:14:41;6.35;;;4.97;;
12367;SDS011;6248;49.812;6.620;2024-03-17T13:17:08;6.10;;;4.70;;
12367;SDS011;6248;49.812;6.620;2024-03-17T13:19:44;6.85;;;4.90;;
12367;SDS011;6248;49.812;6.620;2024-03-17T13:22:12;6.60;;;4.45;;
12367;SDS011;6248;49.812;6.620;2024-03-17T13:24:41;4.88;;;4.38;;
12367;SDS011;6248;49.812;6.620;2024-03-17T13:27:08;5.47;;;4.57;;
12367;SDS011;6248;49.812;6.620;2024-03-17T13:29:35;6.18;;;4.78;;
12367;SDS011;6248;49.812;6.620;2024-03-17T13:32:03;5.78;;;4.38;;
12367;SDS011;6248;49.812;6.620;2024-03-17T13:34:31;5.03;;;4.43;;
12367;SDS011;6248;49.812;6.620;2024-03-17T13:36:58;6.28;;;4.85;;
12367;SDS011;6248;49.812;6.620;2024-03-17T13:39:29;5.93;;;4.35;;
12367;SDS011;6248;49.812;6.620;2024-03-17T13:41:59;7.72;;;4.70;;
12367;SDS011;6248;49.812;6.620;2024-03-17T13:44:28;5.13;;;3.55;;
12367;SDS011;6248;49.812;6.620;2024-03-17T13:46:56;4.60;;;4.13;;
12367;SDS011;6248;49.812;6.620;2024-03-17T13:49:23;6.32;;;4.50;;
12367;SDS011;6248;49.812;6.620;2024-03-17T13:51:51;5.30;;;4.38;;
12367;SDS011;6248;49.812;6.620;2024-03-17T13:54:18;6.47;;;4.50;;
12367;SDS011;6248;49.812;6.620;2024-03-17T13:56:46;5.47;;;4.47;;
12367;SDS011;6248;49.812;6.620;2024-03-17T13:59:15;6.15;;;4.38;;
12367;SDS011;6248;49.812;6.620;2024-03-17T14:01:42;4.88;;;3.65;;
12367;SDS011;6248;49.812;6.620;2024-03-17T14:04:12;4.63;;;3.80;;
12367;SDS011;6248;49.812;6.620;2024-03-17T14:06:40;4.57;;;3.53;;
12367;SDS011;6248;49.812;6.620;2024-03-17T14:09:07;6.30;;;4.78;;
12367;SDS011;6248;49.812;6.620;2024-03-17T14:11:34;5.38;;;4.25;;
12367;SDS011;6248;49.812;6.620;2024-03-17T14:14:01;5.88;;;4.43;;
12367;SDS011;6248;49.812;6.620;2024-03-17T14:16:31;6.60;;;4.25;;
12367;SDS011;6248;49.812;6.620;2024-03-17T14:18:58;5.55;;;3.55;;
12367;SDS011;6248;49.812;6.620;2024-03-17T14:21:26;4.28;;;3.80;;
12367;SDS011;6248;49.812;6.620;2024-03-17T14:23:53;4.75;;;3.83;;
12367;SDS011;6248;49.812;6.620;2024-03-17T14:26:20;6.68;;;3.90;;
12367;SDS011;6248;49.812;6.620;2024-03-17T14:28:47;6.30;;;4.28;;
12367;SDS011;6248;49.812;6.620;2024-03-17T14:31:15;5.50;;;3.97;;
12367;SDS011;6248;49.812;6.620;2024-03-17T14:33:43;4.88;;;3.63;;
12367;SDS011;6248;49.812;6.620;2024-03-17T14:36:11;3.85;;;3.45;;
12367;SDS011;6248;49.812;6.620;2024-03-17T14:38:38;4.15;;;3.30;;
12367;SDS011;6248;49.812;6.620;2024-03-17T14:41:05;3.83;;;3.10;;
12367;SDS011;6248;49.812;6.620;2024-03-17T14:43:32;3.85;;;2.90;;
12367;SDS011;6248;49.812;6.620;2024-03-17T14:46:03;4.15;;;3.30;;
12367;SDS011;6248;49.812;6.620;2024-03-17T14:48:32;4.85;;;2.97;;
12367;SDS011;6248;49.812;6.620;2024-03-17T14:51:01;5.25;;;3.28;;
12367;SDS011;6248;49.812;6.620;2024-03-17T14:53:28;3.90;;;3.10;;
12367;SDS011;6248;49.812;6.620;2024-03-17T14:55:55;4.45;;;2.78;;
12367;SDS011;6248;49.812;6.620;2024-03-17T14:58:24;3.10;;;2.10;;
12367;SDS011;6248;49.812;6.620;2024-03-17T15:00:51;2.67;;;2.10;;
12367;SDS011;6248;49.812;6.620;2024-03-17T15:03:18;2.10;;;1.70;;
12367;SDS011;6248;49.812;6.620;2024-03-17T15:05:45;1.95;;;1.70;;
12367;SDS011;6248;49.812;6.620;2024-03-17T15:08:13;2.40;;;1.60;;
12367;SDS011;6248;49.812;6.620;2024-03-17T15:10:41;1.90;;;1.77;;
12367;SDS011;6248;49.812;6.620;2024-03-17T15:13:08;3.08;;;1.90;;